Weather at Coventry Airport

Public forecast

Using degrees Celsius for public forecast. Weather courtesy of forecast.io.

Closest aviation weather report (METAR) to Coventry Airport

Closest report is Birmingham International Airport, 11.1 nm (20.5 km) WNW.

2024/05/21 17:20 (retrieved 17 minutes ago)

EGBB 211720Z 04004KT 350V090 9999 BKN025 OVC033 16/11 Q1009

Closest aviation forecast (TAF) to Coventry Airport

Closest forecast is Birmingham International Airport, 11.1 nm (20.5 km) WNW.

2024/05/21 12:00 (retrieved 6 hours ago)

TAF EGBB 211055Z 2112/2212 03005KT 9999 SCT040 PROB30 TEMPO 2114/2118 3000 +SHRA BKN014 BKN030CB BECMG 2118/2121 8000 BKN012 TEMPO 2118/2212 RA BKN008 PROB30 TEMPO 2120/2212 3000 +RA BR BKN004 BECMG 2204/2207 33010KT BECMG 2209/2212 27009KT